sensor_id;sensor_type;location;lat;lon;timestamp;pressure;altitude;pressure_sealevel;temperature;humidity
6144;BME280;3103;49.492;8.474;2022-10-31T00:00:07;100961.19;;;16.08;92.14
6144;BME280;3103;49.492;8.474;2022-10-31T00:02:37;100960.03;;;15.98;92.21
6144;BME280;3103;49.492;8.474;2022-10-31T00:05:04;100962.19;;;15.96;92.26
6144;BME280;3103;49.492;8.474;2022-10-31T00:07:31;100960.31;;;15.97;92.38
6144;BME280;3103;49.492;8.474;2022-10-31T00:09:57;100960.78;;;15.89;92.58
6144;BME280;3103;49.492;8.474;2022-10-31T00:12:24;100958.06;;;15.84;92.98
6144;BME280;3103;49.492;8.474;2022-10-31T00:14:52;100952.97;;;15.92;92.59
6144;BME280;3103;49.492;8.474;2022-10-31T00:17:18;100952.97;;;15.92;91.73
6144;BME280;3103;49.492;8.474;2022-10-31T00:19:45;100952.72;;;15.94;90.62
6144;BME280;3103;49.492;8.474;2022-10-31T00:22:12;100957.25;;;15.88;90.66
6144;BME280;3103;49.492;8.474;2022-10-31T00:24:38;100950.25;;;15.92;90.69
6144;BME280;3103;49.492;8.474;2022-10-31T00:27:05;100948.97;;;16.05;89.89
6144;BME280;3103;49.492;8.474;2022-10-31T00:29:32;100950.53;;;15.91;89.90
6144;BME280;3103;49.492;8.474;2022-10-31T00:31:59;100948.66;;;15.96;90.34
6144;BME280;3103;49.492;8.474;2022-10-31T00:34:25;100951.03;;;15.88;90.83
6144;BME280;3103;49.492;8.474;2022-10-31T00:36:52;100963.19;;;15.80;91.68
6144;BME280;3103;49.492;8.474;2022-10-31T00:39:19;100956.69;;;15.81;91.00
6144;BME280;3103;49.492;8.474;2022-10-31T00:41:45;100960.66;;;15.68;91.12
6144;BME280;3103;49.492;8.474;2022-10-31T00:44:12;100965.78;;;15.65;91.99
6144;BME280;3103;49.492;8.474;2022-10-31T00:46:39;100968.50;;;15.65;91.88
6144;BME280;3103;49.492;8.474;2022-10-31T00:49:05;100965.03;;;15.74;91.33
6144;BME280;3103;49.492;8.474;2022-10-31T00:51:32;100969.63;;;15.74;91.33
6144;BME280;3103;49.492;8.474;2022-10-31T00:53:59;100969.94;;;15.78;91.19
6144;BME280;3103;49.492;8.474;2022-10-31T00:56:26;100966.72;;;15.81;91.59
6144;BME280;3103;49.492;8.474;2022-10-31T00:58:52;100969.41;;;15.81;91.28
6144;BME280;3103;49.492;8.474;2022-10-31T01:01:20;100972.59;;;15.72;91.84
6144;BME280;3103;49.492;8.474;2022-10-31T01:03:48;100970.44;;;15.74;92.37
6144;BME280;3103;49.492;8.474;2022-10-31T01:06:15;100967.47;;;15.76;92.02
6144;BME280;3103;49.492;8.474;2022-10-31T01:08:42;100977.22;;;15.72;91.58
6144;BME280;3103;49.492;8.474;2022-10-31T01:11:30;100971.84;;;15.77;90.97
6144;BME280;3103;49.492;8.474;2022-10-31T01:13:56;100974.25;;;15.73;90.81
6144;BME280;3103;49.492;8.474;2022-10-31T01:16:25;100972.91;;;15.76;90.43
6144;BME280;3103;49.492;8.474;2022-10-31T01:18:52;100975.41;;;15.83;90.78
6144;BME280;3103;49.492;8.474;2022-10-31T01:21:22;100986.50;;;15.81;90.40
6144;BME280;3103;49.492;8.474;2022-10-31T01:23:53;100982.59;;;15.67;91.10
6144;BME280;3103;49.492;8.474;2022-10-31T01:26:26;100979.59;;;15.63;91.60
6144;BME280;3103;49.492;8.474;2022-10-31T01:29:00;100980.31;;;15.59;91.93
6144;BME280;3103;49.492;8.474;2022-10-31T01:31:31;100977.13;;;15.62;91.88
6144;BME280;3103;49.492;8.474;2022-10-31T01:34:05;100983.63;;;15.61;92.13
6144;BME280;3103;49.492;8.474;2022-10-31T01:36:37;100974.47;;;15.67;92.03
6144;BME280;3103;49.492;8.474;2022-10-31T01:39:10;100978.81;;;15.68;91.19
6144;BME280;3103;49.492;8.474;2022-10-31T01:41:41;100975.00;;;15.64;91.19
6144;BME280;3103;49.492;8.474;2022-10-31T01:46:44;100974.63;;;15.55;92.06
6144;BME280;3103;49.492;8.474;2022-10-31T01:49:18;100973.38;;;15.63;91.80
6144;BME280;3103;49.492;8.474;2022-10-31T01:51:54;100971.78;;;15.72;91.57
6144;BME280;3103;49.492;8.474;2022-10-31T01:54:26;100959.31;;;15.71;91.19
6144;BME280;3103;49.492;8.474;2022-10-31T01:56:56;100965.28;;;15.73;91.24
6144;BME280;3103;49.492;8.474;2022-10-31T01:59:27;100964.00;;;15.81;90.80
6144;BME280;3103;49.492;8.474;2022-10-31T02:01:56;100967.19;;;15.72;90.41
6144;BME280;3103;49.492;8.474;2022-10-31T02:04:24;100970.69;;;15.68;90.31
6144;BME280;3103;49.492;8.474;2022-10-31T02:06:59;100965.84;;;15.75;89.50
6144;BME280;3103;49.492;8.474;2022-10-31T02:09:29;100960.53;;;15.53;90.30
6144;BME280;3103;49.492;8.474;2022-10-31T02:11:58;100964.66;;;15.61;90.55
6144;BME280;3103;49.492;8.474;2022-10-31T02:14:28;100962.44;;;15.58;90.25
6144;BME280;3103;49.492;8.474;2022-10-31T02:16:55;100968.13;;;15.56;90.41
6144;BME280;3103;49.492;8.474;2022-10-31T02:22:16;100966.41;;;15.45;91.10
6144;BME280;3103;49.492;8.474;2022-10-31T02:30:17;100952.50;;;15.31;90.87
6144;BME280;3103;49.492;8.474;2022-10-31T02:33:23;100950.81;;;15.25;91.04
6144;BME280;3103;49.492;8.474;2022-10-31T02:36:46;100945.41;;;15.25;91.19
6144;BME280;3103;49.492;8.474;2022-10-31T02:39:02;100945.94;;;15.22;91.13
6144;BME280;3103;49.492;8.474;2022-10-31T02:41:44;100956.25;;;15.25;90.82
6144;BME280;3103;49.492;8.474;2022-10-31T02:47:08;100947.75;;;15.17;90.36
6144;BME280;3103;49.492;8.474;2022-10-31T02:49:53;100940.47;;;15.17;89.98
6144;BME280;3103;49.492;8.474;2022-10-31T02:52:24;100942.22;;;15.01;89.75
6144;BME280;3103;49.492;8.474;2022-10-31T02:54:51;100939.72;;;14.95;90.57
6144;BME280;3103;49.492;8.474;2022-10-31T02:57:27;100933.75;;;14.93;90.61
6144;BME280;3103;49.492;8.474;2022-10-31T03:00:02;100942.44;;;14.95;90.80
6144;BME280;3103;49.492;8.474;2022-10-31T03:05:43;100948.19;;;15.03;90.23
6144;BME280;3103;49.492;8.474;2022-10-31T03:08:22;100943.38;;;15.10;89.19
6144;BME280;3103;49.492;8.474;2022-10-31T03:10:59;100941.00;;;15.19;88.29
6144;BME280;3103;49.492;8.474;2022-10-31T03:16:23;100945.31;;;15.15;86.54
6144;BME280;3103;49.492;8.474;2022-10-31T03:19:07;100941.41;;;15.01;87.63
6144;BME280;3103;49.492;8.474;2022-10-31T03:21:47;100941.34;;;14.96;88.86
6144;BME280;3103;49.492;8.474;2022-10-31T03:24:15;100943.66;;;14.82;89.18
6144;BME280;3103;49.492;8.474;2022-10-31T03:26:47;100942.47;;;14.73;89.30
6144;BME280;3103;49.492;8.474;2022-10-31T03:29:19;100934.72;;;14.81;88.96
6144;BME280;3103;49.492;8.474;2022-10-31T03:31:51;100941.69;;;14.77;88.80
6144;BME280;3103;49.492;8.474;2022-10-31T03:34:22;100947.59;;;14.69;89.21
6144;BME280;3103;49.492;8.474;2022-10-31T03:36:51;100939.09;;;14.61;90.36
6144;BME280;3103;49.492;8.474;2022-10-31T03:39:20;100943.91;;;14.80;89.36
6144;BME280;3103;49.492;8.474;2022-10-31T03:42:05;100951.91;;;14.97;87.78
6144;BME280;3103;49.492;8.474;2022-10-31T03:44:33;100945.63;;;14.92;88.24
6144;BME280;3103;49.492;8.474;2022-10-31T03:47:04;100947.03;;;14.67;88.95
6144;BME280;3103;49.492;8.474;2022-10-31T03:49:33;100944.25;;;14.62;89.67
6144;BME280;3103;49.492;8.474;2022-10-31T03:52:18;100938.19;;;14.77;89.51
6144;BME280;3103;49.492;8.474;2022-10-31T03:54:52;100938.50;;;14.80;88.47
6144;BME280;3103;49.492;8.474;2022-10-31T03:57:31;100941.34;;;14.69;88.73
6144;BME280;3103;49.492;8.474;2022-10-31T04:00:08;100941.34;;;14.69;88.95
6144;BME280;3103;49.492;8.474;2022-10-31T04:02:50;100936.06;;;14.79;88.62
6144;BME280;3103;49.492;8.474;2022-10-31T04:05:20;100937.31;;;14.71;88.66
6144;BME280;3103;49.492;8.474;2022-10-31T04:07:51;100939.75;;;14.73;88.60
6144;BME280;3103;49.492;8.474;2022-10-31T04:10:20;100940.03;;;14.71;88.56
6144;BME280;3103;49.492;8.474;2022-10-31T04:12:52;100939.97;;;14.66;88.89
6144;BME280;3103;49.492;8.474;2022-10-31T04:15:25;100928.78;;;14.58;89.31
6144;BME280;3103;49.492;8.474;2022-10-31T04:17:55;100933.34;;;14.52;89.65
6144;BME280;3103;49.492;8.474;2022-10-31T04:20:44;100945.97;;;14.46;90.93
6144;BME280;3103;49.492;8.474;2022-10-31T04:23:26;100937.59;;;14.48;91.05
6144;BME280;3103;49.492;8.474;2022-10-31T04:25:53;100933.59;;;14.50;91.40
6144;BME280;3103;49.492;8.474;2022-10-31T04:28:20;100939.16;;;14.66;90.39
6144;BME280;3103;49.492;8.474;2022-10-31T04:30:46;100934.25;;;14.63;90.23
6144;BME280;3103;49.492;8.474;2022-10-31T04:33:13;100930.69;;;14.57;91.41
6144;BME280;3103;49.492;8.474;2022-10-31T04:35:43;100935.94;;;14.69;91.14
6144;BME280;3103;49.492;8.474;2022-10-31T04:38:10;100925.53;;;14.55;91.30
6144;BME280;3103;49.492;8.474;2022-10-31T04:40:38;100929.03;;;14.56;91.88
6144;BME280;3103;49.492;8.474;2022-10-31T04:43:23;100939.41;;;14.64;91.53
6144;BME280;3103;49.492;8.474;2022-10-31T04:45:51;100934.81;;;14.65;91.05
6144;BME280;3103;49.492;8.474;2022-10-31T04:48:18;100939.59;;;14.58;92.53
6144;BME280;3103;49.492;8.474;2022-10-31T04:50:45;100933.59;;;14.50;93.13
6144;BME280;3103;49.492;8.474;2022-10-31T04:53:12;100934.59;;;14.44;93.86
6144;BME280;3103;49.492;8.474;2022-10-31T04:55:59;100940.41;;;14.36;95.19
6144;BME280;3103;49.492;8.474;2022-10-31T04:58:38;100943.25;;;14.68;94.32
6144;BME280;3103;49.492;8.474;2022-10-31T05:01:07;100943.19;;;14.90;92.56
6144;BME280;3103;49.492;8.474;2022-10-31T05:03:34;100950.66;;;14.78;92.18
6144;BME280;3103;49.492;8.474;2022-10-31T05:06:01;100943.69;;;14.60;92.96
6144;BME280;3103;49.492;8.474;2022-10-31T05:08:28;100944.63;;;14.71;92.28
6144;BME280;3103;49.492;8.474;2022-10-31T05:10:59;100940.97;;;14.60;92.49
6144;BME280;3103;49.492;8.474;2022-10-31T05:13:30;100927.75;;;14.64;91.43
6144;BME280;3103;49.492;8.474;2022-10-31T05:16:20;100921.41;;;14.31;92.74
6144;BME280;3103;49.492;8.474;2022-10-31T05:18:49;100924.31;;;14.24;93.65
6144;BME280;3103;49.492;8.474;2022-10-31T05:21:28;100941.03;;;14.21;94.05
6144;BME280;3103;49.492;8.474;2022-10-31T05:23:58;100939.66;;;14.41;94.07
6144;BME280;3103;49.492;8.474;2022-10-31T05:26:26;100935.53;;;14.55;91.73
6144;BME280;3103;49.492;8.474;2022-10-31T05:28:54;100926.28;;;14.51;90.97
6144;BME280;3103;49.492;8.474;2022-10-31T05:31:22;100922.63;;;14.40;91.31
6144;BME280;3103;49.492;8.474;2022-10-31T05:33:50;100931.38;;;14.25;92.43
6144;BME280;3103;49.492;8.474;2022-10-31T05:36:20;100929.09;;;14.17;93.15
6144;BME280;3103;49.492;8.474;2022-10-31T05:38:56;100931.75;;;14.12;92.47
6144;BME280;3103;49.492;8.474;2022-10-31T05:41:27;100929.59;;;14.14;92.66
6144;BME280;3103;49.492;8.474;2022-10-31T05:44:03;100928.13;;;14.07;92.35
6144;BME280;3103;49.492;8.474;2022-10-31T05:46:34;100933.59;;;13.90;93.80
6144;BME280;3103;49.492;8.474;2022-10-31T05:49:21;100923.28;;;13.87;94.79
6144;BME280;3103;49.492;8.474;2022-10-31T05:52:28;100922.66;;;14.02;93.75
6144;BME280;3103;49.492;8.474;2022-10-31T05:55:03;100925.13;;;14.03;93.44
6144;BME280;3103;49.492;8.474;2022-10-31T05:57:32;100922.41;;;14.03;92.93
6144;BME280;3103;49.492;8.474;2022-10-31T05:59:59;100925.81;;;13.93;93.02
6144;BME280;3103;49.492;8.474;2022-10-31T06:02:28;100925.94;;;13.82;93.12
6144;BME280;3103;49.492;8.474;2022-10-31T06:05:20;100924.59;;;13.84;93.33
6144;BME280;3103;49.492;8.474;2022-10-31T06:07:47;100923.28;;;13.87;93.25
6144;BME280;3103;49.492;8.474;2022-10-31T06:10:14;100919.47;;;13.83;93.00
6144;BME280;3103;49.492;8.474;2022-10-31T06:12:40;100928.69;;;13.87;92.18
6144;BME280;3103;49.492;8.474;2022-10-31T06:15:16;100938.22;;;13.73;92.59
6144;BME280;3103;49.492;8.474;2022-10-31T06:18:01;100933.06;;;13.71;92.93
6144;BME280;3103;49.492;8.474;2022-10-31T06:20:32;100931.69;;;13.90;91.85
6144;BME280;3103;49.492;8.474;2022-10-31T06:23:02;100931.69;;;13.90;91.73
6144;BME280;3103;49.492;8.474;2022-10-31T06:25:32;100930.25;;;13.83;91.59
6144;BME280;3103;49.492;8.474;2022-10-31T06:27:59;100927.06;;;13.86;91.32
6144;BME280;3103;49.492;8.474;2022-10-31T06:30:39;100928.69;;;13.87;90.98
6144;BME280;3103;49.492;8.474;2022-10-31T06:33:07;100926.00;;;13.87;90.10
6144;BME280;3103;49.492;8.474;2022-10-31T06:35:37;100927.69;;;13.93;89.14
6144;BME280;3103;49.492;8.474;2022-10-31T06:38:04;100921.59;;;13.81;89.20
6144;BME280;3103;49.492;8.474;2022-10-31T06:40:41;100927.00;;;13.81;88.92
6144;BME280;3103;49.492;8.474;2022-10-31T06:43:20;100929.53;;;13.71;89.57
6144;BME280;3103;49.492;8.474;2022-10-31T06:45:49;100931.19;;;13.72;89.76
6144;BME280;3103;49.492;8.474;2022-10-31T06:48:32;100931.25;;;13.77;89.53
6144;BME280;3103;49.492;8.474;2022-10-31T06:51:14;100919.72;;;13.64;90.18
6144;BME280;3103;49.492;8.474;2022-10-31T06:53:41;100926.53;;;13.67;90.31
6144;BME280;3103;49.492;8.474;2022-10-31T06:56:10;100927.34;;;13.68;91.23
6144;BME280;3103;49.492;8.474;2022-10-31T06:58:43;100933.94;;;13.77;91.40
6144;BME280;3103;49.492;8.474;2022-10-31T07:01:12;100935.66;;;13.83;91.37
6144;BME280;3103;49.492;8.474;2022-10-31T07:03:39;100935.22;;;13.91;90.66
6144;BME280;3103;49.492;8.474;2022-10-31T07:06:07;100932.25;;;13.92;90.93
6144;BME280;3103;49.492;8.474;2022-10-31T07:08:34;100936.03;;;13.91;90.83
6144;BME280;3103;49.492;8.474;2022-10-31T07:11:00;100932.91;;;14.00;90.50
6144;BME280;3103;49.492;8.474;2022-10-31T07:13:28;100928.94;;;14.07;89.63
6144;BME280;3103;49.492;8.474;2022-10-31T07:16:06;100929.59;;;14.14;88.70
6144;BME280;3103;49.492;8.474;2022-10-31T07:18:35;100933.78;;;14.05;89.45
6144;BME280;3103;49.492;8.474;2022-10-31T07:21:02;100926.63;;;14.16;88.63
6144;BME280;3103;49.492;8.474;2022-10-31T07:23:29;100930.09;;;14.11;87.95
6144;BME280;3103;49.492;8.474;2022-10-31T07:26:16;100932.75;;;14.28;87.59
6144;BME280;3103;49.492;8.474;2022-10-31T07:28:46;100926.94;;;14.19;87.51
6144;BME280;3103;49.492;8.474;2022-10-31T07:31:16;100935.84;;;14.37;87.53
6144;BME280;3103;49.492;8.474;2022-10-31T07:33:43;100930.00;;;14.45;87.17
6144;BME280;3103;49.492;8.474;2022-10-31T07:36:42;100927.00;;;14.68;85.48
6144;BME280;3103;49.492;8.474;2022-10-31T07:39:11;100940.13;;;14.81;84.51
6144;BME280;3103;49.492;8.474;2022-10-31T07:41:38;100933.03;;;14.75;84.69
6144;BME280;3103;49.492;8.474;2022-10-31T07:44:05;100941.22;;;15.07;83.91
6144;BME280;3103;49.492;8.474;2022-10-31T07:47:03;100927.59;;;15.02;83.70
6144;BME280;3103;49.492;8.474;2022-10-31T07:49:53;100932.91;;;15.19;82.92
6144;BME280;3103;49.492;8.474;2022-10-31T07:52:40;100936.69;;;15.18;83.04
6144;BME280;3103;49.492;8.474;2022-10-31T07:55:41;100942.97;;;15.24;82.65
6144;BME280;3103;49.492;8.474;2022-10-31T07:58:17;100945.72;;;15.29;82.27
6144;BME280;3103;49.492;8.474;2022-10-31T08:00:45;100933.28;;;15.33;82.15
6144;BME280;3103;49.492;8.474;2022-10-31T08:03:27;100940.03;;;15.30;81.78
6144;BME280;3103;49.492;8.474;2022-10-31T08:06:09;100932.13;;;15.24;81.99
6144;BME280;3103;49.492;8.474;2022-10-31T08:08:57;100930.56;;;15.33;81.79
6144;BME280;3103;49.492;8.474;2022-10-31T08:11:24;100934.97;;;15.39;82.29
6144;BME280;3103;49.492;8.474;2022-10-31T08:13:51;100933.44;;;15.53;81.39
6144;BME280;3103;49.492;8.474;2022-10-31T08:16:18;100941.28;;;15.50;81.48
6144;BME280;3103;49.492;8.474;2022-10-31T08:18:53;100934.63;;;15.62;81.27
6144;BME280;3103;49.492;8.474;2022-10-31T08:21:22;100931.50;;;15.81;82.04
6144;BME280;3103;49.492;8.474;2022-10-31T08:23:49;100925.28;;;15.90;81.48
6144;BME280;3103;49.492;8.474;2022-10-31T08:26:18;100926.44;;;15.99;80.56
6144;BME280;3103;49.492;8.474;2022-10-31T08:28:45;100926.56;;;16.20;79.34
6144;BME280;3103;49.492;8.474;2022-10-31T08:31:13;100934.16;;;16.28;78.80
6144;BME280;3103;49.492;8.474;2022-10-31T08:33:40;100937.94;;;16.22;79.11
6144;BME280;3103;49.492;8.474;2022-10-31T08:36:20;100929.31;;;16.40;77.33
6144;BME280;3103;49.492;8.474;2022-10-31T08:39:06;100927.75;;;16.49;76.36
6144;BME280;3103;49.492;8.474;2022-10-31T08:41:32;100930.69;;;16.43;78.03
6144;BME280;3103;49.492;8.474;2022-10-31T08:44:00;100924.66;;;16.25;78.53
6144;BME280;3103;49.492;8.474;2022-10-31T08:46:26;100923.34;;;16.38;78.75
6144;BME280;3103;49.492;8.474;2022-10-31T08:48:53;100921.47;;;16.44;79.17
6144;BME280;3103;49.492;8.474;2022-10-31T08:51:25;100915.00;;;16.50;78.97
6144;BME280;3103;49.492;8.474;2022-10-31T08:53:55;100913.66;;;16.57;78.69
6144;BME280;3103;49.492;8.474;2022-10-31T08:56:24;100921.84;;;16.68;78.80
6144;BME280;3103;49.492;8.474;2022-10-31T08:58:53;100913.09;;;16.55;78.80
6144;BME280;3103;49.492;8.474;2022-10-31T09:01:32;100920.19;;;16.61;78.65
6144;BME280;3103;49.492;8.474;2022-10-31T09:04:05;100916.91;;;16.59;79.19
6144;BME280;3103;49.492;8.474;2022-10-31T09:06:33;100925.66;;;16.72;79.71
6144;BME280;3103;49.492;8.474;2022-10-31T09:09:00;100905.56;;;16.68;80.02
6144;BME280;3103;49.492;8.474;2022-10-31T09:11:26;100897.44;;;16.68;80.50
6144;BME280;3103;49.492;8.474;2022-10-31T09:14:12;100907.19;;;16.74;80.77
6144;BME280;3103;49.492;8.474;2022-10-31T09:16:38;100900.13;;;16.68;80.63
6144;BME280;3103;49.492;8.474;2022-10-31T09:19:11;100907.19;;;16.74;81.19
6144;BME280;3103;49.492;8.474;2022-10-31T09:21:38;100897.19;;;16.84;80.93
6144;BME280;3103;49.492;8.474;2022-10-31T09:24:05;100907.97;;;16.64;81.34
6144;BME280;3103;49.492;8.474;2022-10-31T09:26:33;100903.97;;;16.77;81.64
6144;BME280;3103;49.492;8.474;2022-10-31T09:29:13;100900.97;;;16.83;81.37
6144;BME280;3103;49.492;8.474;2022-10-31T09:31:40;100904.78;;;16.98;80.77
6144;BME280;3103;49.492;8.474;2022-10-31T09:34:29;100891.78;;;17.05;80.10
6144;BME280;3103;49.492;8.474;2022-10-31T09:37:18;100906.44;;;17.04;79.82
6144;BME280;3103;49.492;8.474;2022-10-31T09:39:45;100903.44;;;17.05;80.13
6144;BME280;3103;49.492;8.474;2022-10-31T09:48:46;100896.94;;;17.32;79.43
6144;BME280;3103;49.492;8.474;2022-10-31T09:51:37;100895.00;;;17.27;79.48
6144;BME280;3103;49.492;8.474;2022-10-31T09:56:47;100889.88;;;17.20;78.79
6144;BME280;3103;49.492;8.474;2022-10-31T09:59:36;100892.31;;;17.37;78.72
6144;BME280;3103;49.492;8.474;2022-10-31T10:04:46;100888.50;;;17.33;78.86
6144;BME280;3103;49.492;8.474;2022-10-31T10:07:53;100879.81;;;17.36;78.85
6144;BME280;3103;49.492;8.474;2022-10-31T10:10:51;100877.31;;;17.55;77.73
6144;BME280;3103;49.492;8.474;2022-10-31T10:14:40;100872.72;;;17.61;77.52
6144;BME280;3103;49.492;8.474;2022-10-31T10:17:36;100882.41;;;18.02;75.51
6144;BME280;3103;49.492;8.474;2022-10-31T10:20:37;100877.50;;;18.04;75.19
6144;BME280;3103;49.492;8.474;2022-10-31T10:28:42;100879.97;;;17.96;75.69
6144;BME280;3103;49.492;8.474;2022-10-31T10:31:28;100875.84;;;18.08;75.69
6144;BME280;3103;49.492;8.474;2022-10-31T10:34:02;100872.75;;;18.25;74.89
6144;BME280;3103;49.492;8.474;2022-10-31T10:36:42;100869.06;;;18.06;75.13
6144;BME280;3103;49.492;8.474;2022-10-31T10:41:44;100864.16;;;18.08;75.24
6144;BME280;3103;49.492;8.474;2022-10-31T10:44:12;100861.25;;;18.38;73.87
6144;BME280;3103;49.492;8.474;2022-10-31T10:46:55;100850.94;;;18.35;74.05
6144;BME280;3103;49.492;8.474;2022-10-31T10:49:52;100841.13;;;18.39;73.94
6144;BME280;3103;49.492;8.474;2022-10-31T10:52:30;100845.56;;;18.30;74.17
6144;BME280;3103;49.492;8.474;2022-10-31T10:58:03;100842.44;;;17.98;74.29
6144;BME280;3103;49.492;8.474;2022-10-31T11:00:40;100837.72;;;18.14;73.52
6144;BME280;3103;49.492;8.474;2022-10-31T11:03:10;100832.03;;;18.10;73.82
6144;BME280;3103;49.492;8.474;2022-10-31T11:05:56;100824.44;;;18.07;74.34
6144;BME280;3103;49.492;8.474;2022-10-31T11:08:32;100821.78;;;18.02;74.87
6144;BME280;3103;49.492;8.474;2022-10-31T11:13:55;100809.28;;;17.96;75.34
6144;BME280;3103;49.492;8.474;2022-10-31T11:16:30;100806.84;;;17.94;75.29
6144;BME280;3103;49.492;8.474;2022-10-31T11:21:46;100795.13;;;18.04;75.25
6144;BME280;3103;49.492;8.474;2022-10-31T11:24:22;100788.50;;;18.20;74.30
6144;BME280;3103;49.492;8.474;2022-10-31T11:26:50;100788.81;;;18.08;74.69
6144;BME280;3103;49.492;8.474;2022-10-31T11:29:20;100789.69;;;17.99;75.19
6144;BME280;3103;49.492;8.474;2022-10-31T11:31:49;100781.53;;;18.04;75.42
6144;BME280;3103;49.492;8.474;2022-10-31T11:34:27;100789.31;;;18.21;74.77
6144;BME280;3103;49.492;8.474;2022-10-31T11:37:01;100789.59;;;18.14;74.80
6144;BME280;3103;49.492;8.474;2022-10-31T11:39:29;100784.25;;;18.04;75.26
6144;BME280;3103;49.492;8.474;2022-10-31T11:42:00;100771.69;;;18.08;75.09
6144;BME280;3103;49.492;8.474;2022-10-31T11:44:34;100771.38;;;18.20;75.25
6144;BME280;3103;49.492;8.474;2022-10-31T11:47:03;100764.44;;;18.37;74.63
6144;BME280;3103;49.492;8.474;2022-10-31T11:49:42;100759.63;;;18.24;74.51
6144;BME280;3103;49.492;8.474;2022-10-31T11:52:24;100758.47;;;18.35;74.01
6144;BME280;3103;49.492;8.474;2022-10-31T11:54:54;100747.66;;;18.25;73.84
6144;BME280;3103;49.492;8.474;2022-10-31T11:57:41;100742.22;;;18.25;74.09
6144;BME280;3103;49.492;8.474;2022-10-31T12:00:32;100744.66;;;18.27;73.94
6144;BME280;3103;49.492;8.474;2022-10-31T12:06:20;100742.72;;;18.32;73.79
6144;BME280;3103;49.492;8.474;2022-10-31T12:08:48;100738.31;;;18.36;73.70
6144;BME280;3103;49.492;8.474;2022-10-31T12:15:03;100728.84;;;18.29;74.14
6144;BME280;3103;49.492;8.474;2022-10-31T12:17:45;100721.88;;;18.18;74.99
6144;BME280;3103;49.492;8.474;2022-10-31T12:20:27;100719.88;;;18.28;75.03
6144;BME280;3103;49.492;8.474;2022-10-31T12:25:51;100723.69;;;18.32;75.08
6144;BME280;3103;49.492;8.474;2022-10-31T12:33:40;100717.72;;;18.30;75.38
6144;BME280;3103;49.492;8.474;2022-10-31T12:36:40;100713.16;;;18.21;75.59
6144;BME280;3103;49.492;8.474;2022-10-31T12:41:51;100719.28;;;18.36;74.21
6144;BME280;3103;49.492;8.474;2022-10-31T12:44:46;100710.47;;;18.16;74.79
6144;BME280;3103;49.492;8.474;2022-10-31T12:47:50;100704.78;;;18.12;75.20
6144;BME280;3103;49.492;8.474;2022-10-31T12:53:14;100705.75;;;18.26;75.49
6144;BME280;3103;49.492;8.474;2022-10-31T12:56:20;100690.66;;;18.10;76.51
6144;BME280;3103;49.492;8.474;2022-10-31T12:59:03;100669.31;;;18.27;75.81
6144;BME280;3103;49.492;8.474;2022-10-31T13:02:15;100647.09;;;18.20;77.03
6144;BME280;3103;49.492;8.474;2022-10-31T13:04:54;100638.94;;;18.15;77.07
6144;BME280;3103;49.492;8.474;2022-10-31T13:07:44;100630.25;;;18.13;77.44
6144;BME280;3103;49.492;8.474;2022-10-31T13:10:22;100637.38;;;18.09;77.38
6144;BME280;3103;49.492;8.474;2022-10-31T13:12:58;100636.50;;;18.14;76.60
6144;BME280;3103;49.492;8.474;2022-10-31T13:15:34;100630.56;;;18.12;76.72
6144;BME280;3103;49.492;8.474;2022-10-31T13:18:09;100626.44;;;18.14;76.63
6144;BME280;3103;49.492;8.474;2022-10-31T13:20:42;100618.88;;;18.11;76.65
6144;BME280;3103;49.492;8.474;2022-10-31T13:26:15;100606.59;;;18.19;75.86
6144;BME280;3103;49.492;8.474;2022-10-31T13:28:57;100598.16;;;18.15;75.97
6144;BME280;3103;49.492;8.474;2022-10-31T13:31:25;100600.34;;;18.13;75.93
6144;BME280;3103;49.492;8.474;2022-10-31T13:33:55;100622.44;;;18.06;76.28
6144;BME280;3103;49.492;8.474;2022-10-31T13:36:41;100620.69;;;17.87;76.34
6144;BME280;3103;49.492;8.474;2022-10-31T13:41:48;100615.06;;;18.12;75.50
6144;BME280;3103;49.492;8.474;2022-10-31T13:46:52;100619.09;;;18.44;72.96
6144;BME280;3103;49.492;8.474;2022-10-31T13:49:39;100629.59;;;18.84;71.58
6144;BME280;3103;49.492;8.474;2022-10-31T13:54:38;100615.81;;;18.99;70.64
6144;BME280;3103;49.492;8.474;2022-10-31T14:00:25;100628.28;;;19.06;71.47
6144;BME280;3103;49.492;8.474;2022-10-31T14:02:56;100625.38;;;18.97;71.71
6144;BME280;3103;49.492;8.474;2022-10-31T14:05:30;100620.97;;;19.01;71.63
6144;BME280;3103;49.492;8.474;2022-10-31T14:08:02;100628.69;;;18.94;71.73
6144;BME280;3103;49.492;8.474;2022-10-31T14:10:36;100626.47;;;19.20;71.28
6144;BME280;3103;49.492;8.474;2022-10-31T14:13:23;100616.47;;;19.34;70.97
6144;BME280;3103;49.492;8.474;2022-10-31T14:15:55;100618.97;;;19.49;70.76
6144;BME280;3103;49.492;8.474;2022-10-31T14:18:25;100615.03;;;19.61;70.43
6144;BME280;3103;49.492;8.474;2022-10-31T14:20:55;100616.75;;;19.51;70.74
6144;BME280;3103;49.492;8.474;2022-10-31T14:23:35;100624.91;;;19.56;70.58
6144;BME280;3103;49.492;8.474;2022-10-31T14:28:58;100609.22;;;19.06;72.03
6144;BME280;3103;49.492;8.474;2022-10-31T14:42:41;100577.09;;;18.55;74.97
6144;BME280;3103;49.492;8.474;2022-10-31T14:45:52;100585.41;;;18.45;75.66
6144;BME280;3103;49.492;8.474;2022-10-31T14:49:11;100584.44;;;18.30;75.72
6144;BME280;3103;49.492;8.474;2022-10-31T14:51:35;100581.72;;;18.30;75.96
6144;BME280;3103;49.492;8.474;2022-10-31T14:54:02;100585.06;;;18.22;76.42
6144;BME280;3103;49.492;8.474;2022-10-31T14:56:36;100595.69;;;18.19;76.76
6144;BME280;3103;49.492;8.474;2022-10-31T14:59:15;100602.91;;;18.33;76.46
6144;BME280;3103;49.492;8.474;2022-10-31T15:02:00;100601.31;;;18.27;76.79
6144;BME280;3103;49.492;8.474;2022-10-31T15:04:30;100598.03;;;18.30;76.15
6144;BME280;3103;49.492;8.474;2022-10-31T15:07:16;100593.44;;;18.26;76.45
6144;BME280;3103;49.492;8.474;2022-10-31T15:10:20;100581.16;;;18.33;76.70
6144;BME280;3103;49.492;8.474;2022-10-31T15:12:49;100572.69;;;18.35;76.94
6144;BME280;3103;49.492;8.474;2022-10-31T15:15:25;100569.47;;;18.33;76.90
6144;BME280;3103;49.492;8.474;2022-10-31T15:17:59;100564.47;;;18.16;77.47
6144;BME280;3103;49.492;8.474;2022-10-31T15:20:31;100565.00;;;18.13;78.25
6144;BME280;3103;49.492;8.474;2022-10-31T15:23:00;100550.94;;;18.35;77.76
6144;BME280;3103;49.492;8.474;2022-10-31T15:25:34;100546.22;;;18.46;76.87